sensor_id;sensor_type;location;lat;lon;timestamp;pressure;altitude;pressure_sealevel;temperature;humidity
48204;BME280;33994;50.998;5.864;2022-07-01T00:02:20;101036.72;;;14.93;84.96
48204;BME280;33994;50.998;5.864;2022-07-01T00:05:24;101034.16;;;14.90;85.02
48204;BME280;33994;50.998;5.864;2022-07-01T00:08:29;101034.13;;;14.91;85.18
48204;BME280;33994;50.998;5.864;2022-07-01T00:11:33;101032.38;;;14.90;85.12
48204;BME280;33994;50.998;5.864;2022-07-01T00:14:37;101031.53;;;14.90;85.05
48204;BME280;33994;50.998;5.864;2022-07-01T00:17:42;101024.53;;;14.89;85.02
48204;BME280;33994;50.998;5.864;2022-07-01T00:20:47;101027.03;;;14.93;84.75
48204;BME280;33994;50.998;5.864;2022-07-01T00:23:52;101015.47;;;14.99;84.50
48204;BME280;33994;50.998;5.864;2022-07-01T00:26:56;101012.88;;;14.97;84.17
48204;BME280;33994;50.998;5.864;2022-07-01T00:30:00;101007.66;;;14.96;84.09
48204;BME280;33994;50.998;5.864;2022-07-01T00:33:05;101007.59;;;14.97;83.83
48204;BME280;33994;50.998;5.864;2022-07-01T00:36:10;101020.75;;;14.99;83.50
48204;BME280;33994;50.998;5.864;2022-07-01T00:39:14;101020.75;;;14.99;83.45
48204;BME280;33994;50.998;5.864;2022-07-01T00:42:18;101026.75;;;15.02;83.33
48204;BME280;33994;50.998;5.864;2022-07-01T00:45:22;101034.66;;;15.02;83.27
48204;BME280;33994;50.998;5.864;2022-07-01T00:48:27;101043.53;;;15.00;83.15
48204;BME280;33994;50.998;5.864;2022-07-01T00:51:31;101059.41;;;14.97;83.21
48204;BME280;33994;50.998;5.864;2022-07-01T00:54:37;101064.69;;;14.97;83.27
48204;BME280;33994;50.998;5.864;2022-07-01T00:57:42;101071.81;;;14.93;83.38
48204;BME280;33994;50.998;5.864;2022-07-01T01:00:47;101067.53;;;14.89;83.71
48204;BME280;33994;50.998;5.864;2022-07-01T01:03:51;101064.91;;;14.89;83.60
48204;BME280;33994;50.998;5.864;2022-07-01T01:06:56;101054.50;;;14.84;83.50
48204;BME280;33994;50.998;5.864;2022-07-01T01:10:02;101056.31;;;14.82;83.68
48204;BME280;33994;50.998;5.864;2022-07-01T01:13:08;101059.78;;;14.84;83.68
48204;BME280;33994;50.998;5.864;2022-07-01T01:16:20;101063.41;;;14.80;83.53
48204;BME280;33994;50.998;5.864;2022-07-01T01:19:25;101058.22;;;14.77;83.43
48204;BME280;33994;50.998;5.864;2022-07-01T01:22:29;101066.97;;;14.78;83.39
48204;BME280;33994;50.998;5.864;2022-07-01T01:25:34;101074.88;;;14.78;83.34
48204;BME280;33994;50.998;5.864;2022-07-01T01:28:38;101077.47;;;14.79;83.28
48204;BME280;33994;50.998;5.864;2022-07-01T01:31:43;101077.44;;;14.81;83.15
48204;BME280;33994;50.998;5.864;2022-07-01T01:34:47;101079.13;;;14.83;83.02
48204;BME280;33994;50.998;5.864;2022-07-01T01:37:52;101069.56;;;14.79;83.07
48204;BME280;33994;50.998;5.864;2022-07-01T01:40:56;101071.31;;;14.80;83.00
48204;BME280;33994;50.998;5.864;2022-07-01T01:44:00;101074.81;;;14.79;83.18
48204;BME280;33994;50.998;5.864;2022-07-01T01:47:05;101073.97;;;14.79;83.14
48204;BME280;33994;50.998;5.864;2022-07-01T01:50:11;101078.38;;;14.78;83.13
48204;BME280;33994;50.998;5.864;2022-07-01T01:53:16;101085.50;;;14.75;83.33
48204;BME280;33994;50.998;5.864;2022-07-01T01:56:21;101093.38;;;14.76;83.14
48204;BME280;33994;50.998;5.864;2022-07-01T01:59:26;101088.91;;;14.78;83.01
48204;BME280;33994;50.998;5.864;2022-07-01T02:02:30;101102.91;;;14.80;82.93
48204;BME280;33994;50.998;5.864;2022-07-01T02:05:36;101093.25;;;14.79;82.91
48204;BME280;33994;50.998;5.864;2022-07-01T02:08:40;101087.25;;;14.76;83.10
48204;BME280;33994;50.998;5.864;2022-07-01T02:11:44;101085.50;;;14.75;83.52
48204;BME280;33994;50.998;5.864;2022-07-01T02:14:49;101091.63;;;14.75;83.87
48204;BME280;33994;50.998;5.864;2022-07-01T02:17:53;101082.00;;;14.74;83.76
48204;BME280;33994;50.998;5.864;2022-07-01T02:20:59;101085.53;;;14.73;83.56
48204;BME280;33994;50.998;5.864;2022-07-01T02:24:03;101073.31;;;14.71;83.60
48204;BME280;33994;50.998;5.864;2022-07-01T02:27:08;101077.78;;;14.69;83.77
48204;BME280;33994;50.998;5.864;2022-07-01T02:30:12;101084.72;;;14.71;83.79
48204;BME280;33994;50.998;5.864;2022-07-01T02:33:16;101086.47;;;14.71;83.73
48204;BME280;33994;50.998;5.864;2022-07-01T02:36:21;101099.69;;;14.69;83.74
48204;BME280;33994;50.998;5.864;2022-07-01T02:39:25;101115.44;;;14.71;83.72
48204;BME280;33994;50.998;5.864;2022-07-01T02:42:30;101133.00;;;14.70;83.54
48204;BME280;33994;50.998;5.864;2022-07-01T02:45:38;101134.00;;;14.66;83.81
48204;BME280;33994;50.998;5.864;2022-07-01T02:48:43;101130.47;;;14.67;83.67
48204;BME280;33994;50.998;5.864;2022-07-01T02:51:47;101142.81;;;14.64;83.63
48204;BME280;33994;50.998;5.864;2022-07-01T02:54:52;101155.97;;;14.65;83.71
48204;BME280;33994;50.998;5.864;2022-07-01T02:57:56;101148.94;;;14.64;83.65
48204;BME280;33994;50.998;5.864;2022-07-01T03:01:00;101135.88;;;14.61;83.86
48204;BME280;33994;50.998;5.864;2022-07-01T03:04:05;101119.25;;;14.59;83.99
48204;BME280;33994;50.998;5.864;2022-07-01T03:07:09;101111.22;;;14.65;83.80
48204;BME280;33994;50.998;5.864;2022-07-01T03:10:14;101119.94;;;14.67;83.73
48204;BME280;33994;50.998;5.864;2022-07-01T03:13:18;101133.16;;;14.66;83.54
48204;BME280;33994;50.998;5.864;2022-07-01T03:16:22;101145.50;;;14.60;83.35
48204;BME280;33994;50.998;5.864;2022-07-01T03:19:27;101143.88;;;14.56;83.66
48204;BME280;33994;50.998;5.864;2022-07-01T03:22:32;101131.59;;;14.57;83.65
48204;BME280;33994;50.998;5.864;2022-07-01T03:25:37;101144.63;;;14.62;83.59
48204;BME280;33994;50.998;5.864;2022-07-01T03:28:41;101162.09;;;14.64;83.34
48204;BME280;33994;50.998;5.864;2022-07-01T03:31:45;101169.97;;;14.64;83.44
48204;BME280;33994;50.998;5.864;2022-07-01T03:34:51;101177.09;;;14.60;83.54
48204;BME280;33994;50.998;5.864;2022-07-01T03:37:57;101178.00;;;14.61;83.56
48204;BME280;33994;50.998;5.864;2022-07-01T03:41:01;101170.09;;;14.61;83.60
48204;BME280;33994;50.998;5.864;2022-07-01T03:44:06;101156.94;;;14.61;83.65
48204;BME280;33994;50.998;5.864;2022-07-01T03:47:10;101157.72;;;14.63;83.62
48204;BME280;33994;50.998;5.864;2022-07-01T03:50:15;101155.09;;;14.63;83.63
48204;BME280;33994;50.998;5.864;2022-07-01T03:53:19;101162.88;;;14.69;83.53
48204;BME280;33994;50.998;5.864;2022-07-01T03:56:40;101154.97;;;14.69;83.11
48204;BME280;33994;50.998;5.864;2022-07-01T03:59:45;101168.06;;;14.72;82.91
48204;BME280;33994;50.998;5.864;2022-07-01T04:02:49;101160.19;;;14.72;82.79
48204;BME280;33994;50.998;5.864;2022-07-01T04:05:54;101164.59;;;14.70;82.64
48204;BME280;33994;50.998;5.864;2022-07-01T04:08:58;101168.16;;;14.68;82.59
48204;BME280;33994;50.998;5.864;2022-07-01T04:12:04;101162.91;;;14.68;82.35
48204;BME280;33994;50.998;5.864;2022-07-01T04:15:10;101158.47;;;14.70;81.94
48204;BME280;33994;50.998;5.864;2022-07-01T04:18:15;101165.44;;;14.72;81.85
48204;BME280;33994;50.998;5.864;2022-07-01T04:21:19;101155.78;;;14.73;81.70
48204;BME280;33994;50.998;5.864;2022-07-01T04:24:41;101175.88;;;14.75;81.44
48204;BME280;33994;50.998;5.864;2022-07-01T04:27:46;101173.22;;;14.77;81.18
48204;BME280;33994;50.998;5.864;2022-07-01T04:30:50;101175.88;;;14.75;81.12
48204;BME280;33994;50.998;5.864;2022-07-01T04:33:55;101172.34;;;14.76;81.17
48204;BME280;33994;50.998;5.864;2022-07-01T04:36:59;101179.25;;;14.80;81.07
48204;BME280;33994;50.998;5.864;2022-07-01T04:40:05;101174.81;;;14.82;80.85
48204;BME280;33994;50.998;5.864;2022-07-01T04:43:09;101171.38;;;14.80;80.96
48204;BME280;33994;50.998;5.864;2022-07-01T04:46:14;101179.25;;;14.80;80.99
48204;BME280;33994;50.998;5.864;2022-07-01T04:49:18;101180.91;;;14.84;81.05
48204;BME280;33994;50.998;5.864;2022-07-01T04:52:23;101186.09;;;14.88;80.95
48204;BME280;33994;50.998;5.864;2022-07-01T04:55:27;101173.72;;;14.90;80.91
48204;BME280;33994;50.998;5.864;2022-07-01T04:58:32;101165.84;;;14.90;80.80
48204;BME280;33994;50.998;5.864;2022-07-01T05:01:36;101166.75;;;14.89;80.67
48204;BME280;33994;50.998;5.864;2022-07-01T05:04:41;101168.53;;;14.88;80.51
48204;BME280;33994;50.998;5.864;2022-07-01T05:07:45;101166.75;;;14.89;80.58
48204;BME280;33994;50.998;5.864;2022-07-01T05:10:50;101167.66;;;14.88;80.51
48204;BME280;33994;50.998;5.864;2022-07-01T05:13:54;101168.53;;;14.87;80.55
48204;BME280;33994;50.998;5.864;2022-07-01T05:16:58;101173.81;;;14.87;80.66
48204;BME280;33994;50.998;5.864;2022-07-01T05:20:03;101169.44;;;14.86;80.68
48204;BME280;33994;50.998;5.864;2022-07-01T05:23:25;101169.41;;;14.87;80.57
48204;BME280;33994;50.998;5.864;2022-07-01T05:26:30;101170.28;;;14.88;80.64
48204;BME280;33994;50.998;5.864;2022-07-01T05:29:34;101164.13;;;14.89;80.65
48204;BME280;33994;50.998;5.864;2022-07-01T05:32:38;101169.31;;;14.92;80.72
48204;BME280;33994;50.998;5.864;2022-07-01T05:35:42;101166.13;;;15.10;80.43
48204;BME280;33994;50.998;5.864;2022-07-01T05:38:47;101174.44;;;15.57;79.18
48204;BME280;33994;50.998;5.864;2022-07-01T05:41:51;101173.09;;;15.73;78.24
48204;BME280;33994;50.998;5.864;2022-07-01T05:44:56;101173.00;;;15.76;78.05
48204;BME280;33994;50.998;5.864;2022-07-01T05:48:00;101179.91;;;15.80;77.80
48204;BME280;33994;50.998;5.864;2022-07-01T05:51:04;101196.00;;;15.71;77.88
48204;BME280;33994;50.998;5.864;2022-07-01T05:54:09;101187.34;;;15.96;76.91
48204;BME280;33994;50.998;5.864;2022-07-01T05:57:13;101202.56;;;15.86;76.71
48204;BME280;33994;50.998;5.864;2022-07-01T06:00:18;101201.19;;;15.74;77.31
48204;BME280;33994;50.998;5.864;2022-07-01T06:03:22;101195.31;;;15.65;77.38
48204;BME280;33994;50.998;5.864;2022-07-01T06:06:26;101199.09;;;15.56;77.59
48204;BME280;33994;50.998;5.864;2022-07-01T06:09:31;101192.66;;;15.65;77.53
48204;BME280;33994;50.998;5.864;2022-07-01T06:12:36;101203.06;;;15.69;77.46
48204;BME280;33994;50.998;5.864;2022-07-01T06:15:41;101210.91;;;15.71;77.29
48204;BME280;33994;50.998;5.864;2022-07-01T06:18:45;101213.91;;;15.60;77.28
48204;BME280;33994;50.998;5.864;2022-07-01T06:21:49;101212.38;;;15.51;77.88
48204;BME280;33994;50.998;5.864;2022-07-01T06:24:53;101208.88;;;15.51;78.11
48204;BME280;33994;50.998;5.864;2022-07-01T06:27:58;101211.25;;;15.60;77.98
48204;BME280;33994;50.998;5.864;2022-07-01T06:31:03;101209.63;;;15.86;77.85
48204;BME280;33994;50.998;5.864;2022-07-01T06:34:07;101197.41;;;16.11;77.12
48204;BME280;33994;50.998;5.864;2022-07-01T06:37:13;101198.38;;;16.35;75.80
48204;BME280;33994;50.998;5.864;2022-07-01T06:40:17;101202.38;;;16.47;75.13
48204;BME280;33994;50.998;5.864;2022-07-01T06:43:21;101200.31;;;16.57;74.60
48204;BME280;33994;50.998;5.864;2022-07-01T06:46:27;101212.28;;;16.67;74.02
48204;BME280;33994;50.998;5.864;2022-07-01T06:49:32;101213.44;;;16.85;73.26
48204;BME280;33994;50.998;5.864;2022-07-01T06:52:36;101218.19;;;17.00;72.61
48204;BME280;33994;50.998;5.864;2022-07-01T06:55:40;101213.84;;;16.99;72.69
48204;BME280;33994;50.998;5.864;2022-07-01T06:58:45;101207.53;;;17.03;72.36
48204;BME280;33994;50.998;5.864;2022-07-01T07:01:49;101218.25;;;16.98;72.61
48204;BME280;33994;50.998;5.864;2022-07-01T07:04:54;101221.75;;;16.99;72.57
48204;BME280;33994;50.998;5.864;2022-07-01T07:08:01;101227.38;;;16.90;71.88
48204;BME280;33994;50.998;5.864;2022-07-01T07:11:05;101233.16;;;16.74;72.01
48204;BME280;33994;50.998;5.864;2022-07-01T07:14:11;101243.16;;;16.65;72.16
48204;BME280;33994;50.998;5.864;2022-07-01T07:17:16;101240.69;;;16.60;72.11
48204;BME280;33994;50.998;5.864;2022-07-01T07:20:21;101254.81;;;16.59;72.58
48204;BME280;33994;50.998;5.864;2022-07-01T07:23:25;101249.63;;;16.56;72.66
48204;BME280;33994;50.998;5.864;2022-07-01T07:26:29;101248.50;;;16.63;72.36
48204;BME280;33994;50.998;5.864;2022-07-01T07:29:34;101256.69;;;16.82;71.68
48204;BME280;33994;50.998;5.864;2022-07-01T07:32:38;101259.84;;;16.93;70.27
48204;BME280;33994;50.998;5.864;2022-07-01T07:35:42;101246.47;;;16.98;69.38
48204;BME280;33994;50.998;5.864;2022-07-01T07:38:47;101252.09;;;17.12;68.80
48204;BME280;33994;50.998;5.864;2022-07-01T07:41:51;101261.13;;;17.32;67.99
48204;BME280;33994;50.998;5.864;2022-07-01T07:44:55;101261.25;;;17.52;66.78
48204;BME280;33994;50.998;5.864;2022-07-01T07:48:00;101264.13;;;17.71;65.56
48204;BME280;33994;50.998;5.864;2022-07-01T07:51:05;101267.84;;;17.89;64.38
48204;BME280;33994;50.998;5.864;2022-07-01T07:54:09;101256.50;;;18.09;63.79
48204;BME280;33994;50.998;5.864;2022-07-01T07:57:13;101242.09;;;18.16;63.09
48204;BME280;33994;50.998;5.864;2022-07-01T08:00:18;101250.50;;;18.26;63.46
48204;BME280;33994;50.998;5.864;2022-07-01T08:03:22;101250.38;;;18.29;63.18
48204;BME280;33994;50.998;5.864;2022-07-01T08:06:27;101252.00;;;18.33;63.07
48204;BME280;33994;50.998;5.864;2022-07-01T08:09:32;101252.00;;;18.33;62.19
48204;BME280;33994;50.998;5.864;2022-07-01T08:12:38;101262.81;;;18.27;61.22
48204;BME280;33994;50.998;5.864;2022-07-01T08:15:42;101257.81;;;18.19;60.31
48204;BME280;33994;50.998;5.864;2022-07-01T08:18:46;101264.97;;;18.17;60.04
48204;BME280;33994;50.998;5.864;2022-07-01T08:21:51;101266.66;;;18.19;59.81
48204;BME280;33994;50.998;5.864;2022-07-01T08:24:56;101273.28;;;18.30;59.86
48204;BME280;33994;50.998;5.864;2022-07-01T08:28:00;101278.47;;;18.33;59.88
48204;BME280;33994;50.998;5.864;2022-07-01T08:31:04;101280.06;;;18.37;59.93
48204;BME280;33994;50.998;5.864;2022-07-01T08:34:08;101288.69;;;18.42;59.94
48204;BME280;33994;50.998;5.864;2022-07-01T08:37:13;101286.59;;;18.50;59.73
48204;BME280;33994;50.998;5.864;2022-07-01T08:40:18;101291.91;;;18.50;58.41
48204;BME280;33994;50.998;5.864;2022-07-01T08:43:22;101288.38;;;18.49;57.96
48204;BME280;33994;50.998;5.864;2022-07-01T08:46:27;101279.72;;;18.46;58.09
48204;BME280;33994;50.998;5.864;2022-07-01T08:49:31;101284.94;;;18.47;58.63
48204;BME280;33994;50.998;5.864;2022-07-01T08:52:35;101285.00;;;18.46;57.55
48204;BME280;33994;50.998;5.864;2022-07-01T08:55:40;101282.41;;;18.44;57.31
48204;BME280;33994;50.998;5.864;2022-07-01T08:58:58;101298.97;;;18.49;57.34
48204;BME280;33994;50.998;5.864;2022-07-01T09:02:04;101311.31;;;18.51;57.21
48204;BME280;33994;50.998;5.864;2022-07-01T09:05:09;101316.06;;;18.64;57.52
48204;BME280;33994;50.998;5.864;2022-07-01T09:08:14;101308.81;;;18.69;56.24
48204;BME280;33994;50.998;5.864;2022-07-01T09:11:25;101313.81;;;18.76;55.26
48204;BME280;33994;50.998;5.864;2022-07-01T09:14:31;101311.88;;;18.81;55.51
48204;BME280;33994;50.998;5.864;2022-07-01T09:17:38;101310.94;;;18.82;55.35
48204;BME280;33994;50.998;5.864;2022-07-01T09:20:45;101315.31;;;18.83;55.79
48204;BME280;33994;50.998;5.864;2022-07-01T09:23:50;101317.16;;;18.81;55.00
48204;BME280;33994;50.998;5.864;2022-07-01T09:27:25;101323.31;;;18.81;55.15
48204;BME280;33994;50.998;5.864;2022-07-01T09:30:29;101324.53;;;18.72;55.63
48204;BME280;33994;50.998;5.864;2022-07-01T09:33:35;101317.72;;;18.67;56.04
48204;BME280;33994;50.998;5.864;2022-07-01T09:36:40;101315.81;;;18.70;56.04
48204;BME280;33994;50.998;5.864;2022-07-01T09:39:52;101314.63;;;18.78;55.24
48204;BME280;33994;50.998;5.864;2022-07-01T09:42:57;101313.78;;;18.77;54.85
48204;BME280;33994;50.998;5.864;2022-07-01T09:46:05;101330.84;;;18.70;54.35
48204;BME280;33994;50.998;5.864;2022-07-01T09:49:10;101331.72;;;18.70;54.75
48204;BME280;33994;50.998;5.864;2022-07-01T09:52:14;101342.19;;;18.74;55.17
48204;BME280;33994;50.998;5.864;2022-07-01T09:55:18;101337.09;;;18.69;55.17
48204;BME280;33994;50.998;5.864;2022-07-01T09:58:24;101346.94;;;18.65;54.86
48204;BME280;33994;50.998;5.864;2022-07-01T10:01:28;101338.84;;;18.68;54.31
48204;BME280;33994;50.998;5.864;2022-07-01T10:04:34;101340.72;;;18.66;54.49
48204;BME280;33994;50.998;5.864;2022-07-01T10:14:25;101346.44;;;18.78;54.19
48204;BME280;33994;50.998;5.864;2022-07-01T10:17:34;101340.28;;;18.77;53.27
48204;BME280;33994;50.998;5.864;2022-07-01T10:20:38;101341.44;;;18.70;53.40
48204;BME280;33994;50.998;5.864;2022-07-01T10:23:43;101341.75;;;18.62;52.91
48204;BME280;33994;50.998;5.864;2022-07-01T10:26:48;101333.44;;;18.71;53.61
48204;BME280;33994;50.998;5.864;2022-07-01T10:30:12;101336.50;;;18.83;54.11
48204;BME280;33994;50.998;5.864;2022-07-01T10:36:43;101329.81;;;18.94;53.76
48204;BME280;33994;50.998;5.864;2022-07-01T10:39:58;101329.63;;;18.99;53.27
48204;BME280;33994;50.998;5.864;2022-07-01T10:43:03;101324.19;;;19.02;53.78
48204;BME280;33994;50.998;5.864;2022-07-01T10:46:07;101327.47;;;19.09;53.12
48204;BME280;33994;50.998;5.864;2022-07-01T10:49:20;101322.66;;;19.18;52.72
48204;BME280;33994;50.998;5.864;2022-07-01T10:52:25;101322.22;;;19.28;52.59
48204;BME280;33994;50.998;5.864;2022-07-01T10:55:41;101334.31;;;19.35;52.16
48204;BME280;33994;50.998;5.864;2022-07-01T10:59:00;101331.66;;;19.35;51.31
48204;BME280;33994;50.998;5.864;2022-07-01T11:02:12;101331.56;;;19.36;52.71
48204;BME280;33994;50.998;5.864;2022-07-01T11:05:18;101341.31;;;19.36;52.74
48204;BME280;33994;50.998;5.864;2022-07-01T11:08:22;101328.88;;;19.38;52.78
48204;BME280;33994;50.998;5.864;2022-07-01T11:11:27;101324.09;;;19.46;51.91
48204;BME280;33994;50.998;5.864;2022-07-01T11:14:37;101335.25;;;19.54;51.65
48204;BME280;33994;50.998;5.864;2022-07-01T11:17:43;101320.28;;;19.53;50.33
48204;BME280;33994;50.998;5.864;2022-07-01T11:20:47;101319.13;;;19.59;50.39
48204;BME280;33994;50.998;5.864;2022-07-01T11:23:53;101326.88;;;19.63;50.76
48204;BME280;33994;50.998;5.864;2022-07-01T11:27:07;101321.28;;;19.69;50.11
48204;BME280;33994;50.998;5.864;2022-07-01T11:30:12;101332.56;;;19.75;50.66
48204;BME280;33994;50.998;5.864;2022-07-01T11:33:17;101323.66;;;19.76;50.89
48204;BME280;33994;50.998;5.864;2022-07-01T11:36:21;101327.53;;;19.68;50.86
48204;BME280;33994;50.998;5.864;2022-07-01T11:39:43;101317.91;;;19.66;51.35
48204;BME280;33994;50.998;5.864;2022-07-01T11:42:48;101323.00;;;19.71;51.50
48204;BME280;33994;50.998;5.864;2022-07-01T11:45:53;101318.50;;;19.73;51.09
48204;BME280;33994;50.998;5.864;2022-07-01T11:48:57;101323.66;;;19.76;51.31
48204;BME280;33994;50.998;5.864;2022-07-01T11:52:04;101319.06;;;19.79;50.93
48204;BME280;33994;50.998;5.864;2022-07-01T11:55:09;101315.69;;;19.76;50.58
48204;BME280;33994;50.998;5.864;2022-07-01T11:58:13;101320.50;;;19.67;50.65
48204;BME280;33994;50.998;5.864;2022-07-01T12:01:21;101319.72;;;19.65;50.34
48204;BME280;33994;50.998;5.864;2022-07-01T12:04:29;101319.50;;;19.70;49.41
48204;BME280;33994;50.998;5.864;2022-07-01T12:07:34;101322.88;;;19.74;49.68
48204;BME280;33994;50.998;5.864;2022-07-01T12:10:39;101320.34;;;19.71;49.28
48204;BME280;33994;50.998;5.864;2022-07-01T12:13:46;101323.56;;;19.58;49.92
48204;BME280;33994;50.998;5.864;2022-07-01T12:16:56;101326.66;;;19.49;49.96
48204;BME280;33994;50.998;5.864;2022-07-01T12:20:01;101326.66;;;19.48;50.43
48204;BME280;33994;50.998;5.864;2022-07-01T12:23:15;101323.56;;;19.58;51.55
48204;BME280;33994;50.998;5.864;2022-07-01T12:26:19;101329.13;;;19.73;51.37
48204;BME280;33994;50.998;5.864;2022-07-01T12:29:26;101323.38;;;19.82;51.46
48204;BME280;33994;50.998;5.864;2022-07-01T12:32:35;101324.84;;;19.89;50.89
48204;BME280;33994;50.998;5.864;2022-07-01T12:35:40;101332.56;;;19.93;51.14
48204;BME280;33994;50.998;5.864;2022-07-01T12:38:59;101329.69;;;19.98;50.89
48204;BME280;33994;50.998;5.864;2022-07-01T12:42:04;101323.41;;;20.01;50.94
48204;BME280;33994;50.998;5.864;2022-07-01T12:45:10;101320.66;;;20.02;50.57
48204;BME280;33994;50.998;5.864;2022-07-01T12:48:14;101329.34;;;20.06;50.53
48204;BME280;33994;50.998;5.864;2022-07-01T12:51:19;101325.47;;;20.13;50.25
48204;BME280;33994;50.998;5.864;2022-07-01T12:54:32;101327.28;;;20.12;48.98
48204;BME280;33994;50.998;5.864;2022-07-01T12:57:37;101321.97;;;20.12;49.46
48204;BME280;33994;50.998;5.864;2022-07-01T13:00:44;101324.84;;;20.08;49.70
48204;BME280;33994;50.998;5.864;2022-07-01T13:03:49;101331.88;;;20.09;50.10
48204;BME280;33994;50.998;5.864;2022-07-01T13:06:53;101336.19;;;20.11;50.51
48204;BME280;33994;50.998;5.864;2022-07-01T13:09:58;101335.25;;;20.12;50.15
48204;BME280;33994;50.998;5.864;2022-07-01T13:13:03;101337.75;;;20.15;50.30
48204;BME280;33994;50.998;5.864;2022-07-01T13:16:07;101334.16;;;20.16;48.96
48204;BME280;33994;50.998;5.864;2022-07-01T13:19:11;101338.63;;;20.16;48.43
48204;BME280;33994;50.998;5.864;2022-07-01T13:22:16;101335.09;;;20.15;48.15
48204;BME280;33994;50.998;5.864;2022-07-01T13:25:21;101327.28;;;20.12;48.35
48204;BME280;33994;50.998;5.864;2022-07-01T13:28:25;101331.81;;;20.10;48.09
48204;BME280;33994;50.998;5.864;2022-07-01T13:31:30;101338.63;;;20.16;48.58
48204;BME280;33994;50.998;5.864;2022-07-01T13:34:34;101331.47;;;20.18;48.52
48204;BME280;33994;50.998;5.864;2022-07-01T13:37:39;101332.31;;;20.18;48.65
48204;BME280;33994;50.998;5.864;2022-07-01T13:40:44;101333.75;;;20.26;49.31
48204;BME280;33994;50.998;5.864;2022-07-01T13:43:48;101336.78;;;20.37;49.30
48204;BME280;33994;50.998;5.864;2022-07-01T13:46:53;101345.25;;;20.45;49.26
48204;BME280;33994;50.998;5.864;2022-07-01T13:49:57;101338.03;;;20.47;48.60
48204;BME280;33994;50.998;5.864;2022-07-01T13:53:02;101342.28;;;20.51;47.91
48204;BME280;33994;50.998;5.864;2022-07-01T13:56:06;101346.38;;;20.58;47.65
48204;BME280;33994;50.998;5.864;2022-07-01T13:59:11;101351.41;;;20.64;47.62
48204;BME280;33994;50.998;5.864;2022-07-01T14:02:16;101360.13;;;20.66;47.51
48204;BME280;33994;50.998;5.864;2022-07-01T14:05:21;101357.63;;;20.63;47.82
48204;BME280;33994;50.998;5.864;2022-07-01T14:08:26;101348.06;;;20.59;47.86
48204;BME280;33994;50.998;5.864;2022-07-01T14:11:30;101357.13;;;20.55;47.82
48204;BME280;33994;50.998;5.864;2022-07-01T14:14:35;101356.13;;;20.58;48.15
48204;BME280;33994;50.998;5.864;2022-07-01T14:17:39;101366.41;;;20.65;48.05
48204;BME280;33994;50.998;5.864;2022-07-01T14:20:43;101367.47;;;20.61;47.59
48204;BME280;33994;50.998;5.864;2022-07-01T14:23:48;101366.63;;;20.61;47.91
48204;BME280;33994;50.998;5.864;2022-07-01T14:26:52;101358.56;;;20.62;47.76
48204;BME280;33994;50.998;5.864;2022-07-01T14:29:57;101364.75;;;20.63;47.23
48204;BME280;33994;50.998;5.864;2022-07-01T14:33:01;101370.00;;;20.64;47.04
48204;BME280;33994;50.998;5.864;2022-07-01T14:36:06;101370.06;;;20.63;46.95
48204;BME280;33994;50.998;5.864;2022-07-01T14:39:10;101361.31;;;20.61;46.68
48204;BME280;33994;50.998;5.864;2022-07-01T14:42:15;101371.09;;;20.60;46.99
48204;BME280;33994;50.998;5.864;2022-07-01T14:45:19;101370.28;;;20.58;46.80
48204;BME280;33994;50.998;5.864;2022-07-01T14:48:23;101369.50;;;20.56;46.72
48204;BME280;33994;50.998;5.864;2022-07-01T14:51:27;101376.44;;;20.59;46.44
48204;BME280;33994;50.998;5.864;2022-07-01T14:54:32;101374.50;;;20.62;46.41
48204;BME280;33994;50.998;5.864;2022-07-01T14:57:37;101374.38;;;20.65;46.21
48204;BME280;33994;50.998;5.864;2022-07-01T15:00:41;101376.78;;;20.70;46.33
48204;BME280;33994;50.998;5.864;2022-07-01T15:03:46;101379.22;;;20.75;46.35
48204;BME280;33994;50.998;5.864;2022-07-01T15:06:50;101379.16;;;20.76;46.39
48204;BME280;33994;50.998;5.864;2022-07-01T15:09:55;101374.56;;;20.80;46.10
48204;BME280;33994;50.998;5.864;2022-07-01T15:13:02;101377.13;;;20.81;46.15
48204;BME280;33994;50.998;5.864;2022-07-01T15:16:07;101383.47;;;20.79;46.14
48204;BME280;33994;50.998;5.864;2022-07-01T15:19:11;101379.16;;;20.76;46.16
48204;BME280;33994;50.998;5.864;2022-07-01T15:22:16;101387.19;;;20.75;46.26
48204;BME280;33994;50.998;5.864;2022-07-01T15:25:20;101391.59;;;20.76;45.67
48204;BME280;33994;50.998;5.864;2022-07-01T15:28:25;101382.69;;;20.77;45.55
48204;BME280;33994;50.998;5.864;2022-07-01T15:31:29;101382.81;;;20.74;44.97
48204;BME280;33994;50.998;5.864;2022-07-01T15:34:34;101387.84;;;20.80;44.70
48204;BME280;33994;50.998;5.864;2022-07-01T15:37:38;101386.81;;;20.82;44.80
48204;BME280;33994;50.998;5.864;2022-07-01T15:40:43;101376.13;;;20.84;44.50
48204;BME280;33994;50.998;5.864;2022-07-01T15:43:49;101382.22;;;20.86;43.99
48204;BME280;33994;50.998;5.864;2022-07-01T15:46:53;101388.34;;;20.88;44.20
48204;BME280;33994;50.998;5.864;2022-07-01T15:49:58;101387.38;;;20.89;44.17
48204;BME280;33994;50.998;5.864;2022-07-01T15:53:03;101393.38;;;20.94;44.15
48204;BME280;33994;50.998;5.864;2022-07-01T15:56:07;101382.63;;;20.96;43.25
48204;BME280;33994;50.998;5.864;2022-07-01T15:59:11;101374.81;;;20.93;43.12
48204;BME280;33994;50.998;5.864;2022-07-01T16:02:16;101388.97;;;20.93;42.68
48204;BME280;33994;50.998;5.864;2022-07-01T16:05:20;101381.94;;;20.92;42.26
48204;BME280;33994;50.998;5.864;2022-07-01T16:11:33;101385.38;;;20.94;43.92
48204;BME280;33994;50.998;5.864;2022-07-01T16:14:38;101381.78;;;20.95;44.26
48204;BME280;33994;50.998;5.864;2022-07-01T16:17:43;101385.22;;;20.97;44.78
48204;BME280;33994;50.998;5.864;2022-07-01T16:20:49;101387.88;;;20.97;43.68
48204;BME280;33994;50.998;5.864;2022-07-01T16:23:53;101380.22;;;20.91;42.81